sensor_id;sensor_type;location;lat;lon;timestamp;temperature;humidity
33023;DHT22;19390;51.460;5.710;2022-08-24T00:00:59;19.20;99.90
33023;DHT22;19390;51.460;5.710;2022-08-24T00:03:25;19.30;99.90
33023;DHT22;19390;51.460;5.710;2022-08-24T00:05:51;19.30;99.90
33023;DHT22;19390;51.460;5.710;2022-08-24T00:08:18;18.90;99.90
33023;DHT22;19390;51.460;5.710;2022-08-24T00:10:44;18.70;99.90
33023;DHT22;19390;51.460;5.710;2022-08-24T00:13:10;18.60;99.90
33023;DHT22;19390;51.460;5.710;2022-08-24T00:15:36;18.50;99.90
33023;DHT22;19390;51.460;5.710;2022-08-24T00:18:02;18.50;99.90
33023;DHT22;19390;51.460;5.710;2022-08-24T00:20:27;18.50;99.90
33023;DHT22;19390;51.460;5.710;2022-08-24T00:22:53;18.30;99.90
33023;DHT22;19390;51.460;5.710;2022-08-24T00:25:19;18.30;99.90
33023;DHT22;19390;51.460;5.710;2022-08-24T00:27:45;18.30;99.90
33023;DHT22;19390;51.460;5.710;2022-08-24T00:30:15;18.30;99.90
33023;DHT22;19390;51.460;5.710;2022-08-24T00:32:41;18.30;99.90
33023;DHT22;19390;51.460;5.710;2022-08-24T00:35:08;18.10;99.90
33023;DHT22;19390;51.460;5.710;2022-08-24T00:37:35;18.00;99.90
33023;DHT22;19390;51.460;5.710;2022-08-24T00:40:02;17.90;99.90
33023;DHT22;19390;51.460;5.710;2022-08-24T00:42:28;17.90;99.90
33023;DHT22;19390;51.460;5.710;2022-08-24T00:44:53;17.90;99.90
33023;DHT22;19390;51.460;5.710;2022-08-24T00:47:26;17.90;99.90
33023;DHT22;19390;51.460;5.710;2022-08-24T00:49:58;17.70;99.90
33023;DHT22;19390;51.460;5.710;2022-08-24T00:52:31;17.70;99.90
33023;DHT22;19390;51.460;5.710;2022-08-24T00:54:59;17.80;99.90
33023;DHT22;19390;51.460;5.710;2022-08-24T00:57:29;17.80;99.90
33023;DHT22;19390;51.460;5.710;2022-08-24T01:00:06;17.80;99.90
33023;DHT22;19390;51.460;5.710;2022-08-24T01:02:34;17.80;99.90
33023;DHT22;19390;51.460;5.710;2022-08-24T01:05:04;17.70;99.90
33023;DHT22;19390;51.460;5.710;2022-08-24T01:07:31;17.60;99.90
33023;DHT22;19390;51.460;5.710;2022-08-24T01:10:13;17.50;99.90
33023;DHT22;19390;51.460;5.710;2022-08-24T01:12:43;17.50;99.90
33023;DHT22;19390;51.460;5.710;2022-08-24T01:15:11;17.40;99.90
33023;DHT22;19390;51.460;5.710;2022-08-24T01:17:36;17.40;99.90
33023;DHT22;19390;51.460;5.710;2022-08-24T01:20:21;17.30;99.90
33023;DHT22;19390;51.460;5.710;2022-08-24T01:23:29;17.40;99.90
33023;DHT22;19390;51.460;5.710;2022-08-24T01:25:57;17.30;99.90
33023;DHT22;19390;51.460;5.710;2022-08-24T01:28:23;17.30;99.90
33023;DHT22;19390;51.460;5.710;2022-08-24T01:30:48;17.20;99.90
33023;DHT22;19390;51.460;5.710;2022-08-24T01:33:29;17.30;99.90
33023;DHT22;19390;51.460;5.710;2022-08-24T01:36:08;17.20;99.90
33023;DHT22;19390;51.460;5.710;2022-08-24T01:38:39;17.10;99.90
33023;DHT22;19390;51.460;5.710;2022-08-24T01:41:04;17.10;99.90
33023;DHT22;19390;51.460;5.710;2022-08-24T01:43:31;17.10;99.90
33023;DHT22;19390;51.460;5.710;2022-08-24T01:45:57;17.20;99.90
33023;DHT22;19390;51.460;5.710;2022-08-24T01:48:22;17.20;99.90
33023;DHT22;19390;51.460;5.710;2022-08-24T01:50:48;17.10;99.90
33023;DHT22;19390;51.460;5.710;2022-08-24T01:53:14;17.00;99.90
33023;DHT22;19390;51.460;5.710;2022-08-24T01:55:40;17.00;99.90
33023;DHT22;19390;51.460;5.710;2022-08-24T01:58:06;16.90;99.90
33023;DHT22;19390;51.460;5.710;2022-08-24T02:00:33;16.90;99.90
33023;DHT22;19390;51.460;5.710;2022-08-24T02:02:59;16.90;99.90
33023;DHT22;19390;51.460;5.710;2022-08-24T02:05:25;16.90;99.90
33023;DHT22;19390;51.460;5.710;2022-08-24T02:07:51;16.90;99.90
33023;DHT22;19390;51.460;5.710;2022-08-24T02:10:17;17.00;99.90
33023;DHT22;19390;51.460;5.710;2022-08-24T02:12:45;16.90;99.90
33023;DHT22;19390;51.460;5.710;2022-08-24T02:15:29;16.90;99.90
33023;DHT22;19390;51.460;5.710;2022-08-24T02:17:55;16.70;99.90
33023;DHT22;19390;51.460;5.710;2022-08-24T02:20:21;16.70;99.90
33023;DHT22;19390;51.460;5.710;2022-08-24T02:22:49;16.60;99.90
33023;DHT22;19390;51.460;5.710;2022-08-24T02:25:15;16.60;99.90
33023;DHT22;19390;51.460;5.710;2022-08-24T02:27:41;16.50;99.90
33023;DHT22;19390;51.460;5.710;2022-08-24T02:30:07;16.60;99.90
33023;DHT22;19390;51.460;5.710;2022-08-24T02:32:33;16.60;99.90
33023;DHT22;19390;51.460;5.710;2022-08-24T02:34:59;16.50;99.90
33023;DHT22;19390;51.460;5.710;2022-08-24T02:37:24;16.50;99.90
33023;DHT22;19390;51.460;5.710;2022-08-24T02:39:50;16.50;99.90
33023;DHT22;19390;51.460;5.710;2022-08-24T02:42:17;16.40;99.90
33023;DHT22;19390;51.460;5.710;2022-08-24T02:44:42;16.40;99.90
33023;DHT22;19390;51.460;5.710;2022-08-24T02:47:08;16.40;99.90
33023;DHT22;19390;51.460;5.710;2022-08-24T02:49:35;16.40;99.90
33023;DHT22;19390;51.460;5.710;2022-08-24T02:52:00;16.40;99.90
33023;DHT22;19390;51.460;5.710;2022-08-24T02:54:26;16.40;99.90
33023;DHT22;19390;51.460;5.710;2022-08-24T02:56:52;16.30;99.90
33023;DHT22;19390;51.460;5.710;2022-08-24T02:59:18;16.30;99.90
33023;DHT22;19390;51.460;5.710;2022-08-24T03:01:45;16.30;99.90
33023;DHT22;19390;51.460;5.710;2022-08-24T03:04:11;16.20;99.90
33023;DHT22;19390;51.460;5.710;2022-08-24T03:06:37;16.20;99.90
33023;DHT22;19390;51.460;5.710;2022-08-24T03:09:02;16.20;99.90
33023;DHT22;19390;51.460;5.710;2022-08-24T03:11:28;16.30;99.90
33023;DHT22;19390;51.460;5.710;2022-08-24T03:13:55;16.20;99.90
33023;DHT22;19390;51.460;5.710;2022-08-24T03:16:22;16.20;99.90
33023;DHT22;19390;51.460;5.710;2022-08-24T03:18:48;16.20;99.90
33023;DHT22;19390;51.460;5.710;2022-08-24T03:21:14;16.20;99.90
33023;DHT22;19390;51.460;5.710;2022-08-24T03:23:39;16.10;99.90
33023;DHT22;19390;51.460;5.710;2022-08-24T03:26:05;16.00;99.90
33023;DHT22;19390;51.460;5.710;2022-08-24T03:28:30;16.00;99.90
33023;DHT22;19390;51.460;5.710;2022-08-24T03:30:56;16.00;99.90
33023;DHT22;19390;51.460;5.710;2022-08-24T03:33:22;16.00;99.90
33023;DHT22;19390;51.460;5.710;2022-08-24T03:35:48;16.00;99.90
33023;DHT22;19390;51.460;5.710;2022-08-24T03:38:13;16.10;99.90
33023;DHT22;19390;51.460;5.710;2022-08-24T03:40:40;16.00;99.90
33023;DHT22;19390;51.460;5.710;2022-08-24T03:43:07;15.90;99.90
33023;DHT22;19390;51.460;5.710;2022-08-24T03:45:33;15.90;99.90
33023;DHT22;19390;51.460;5.710;2022-08-24T03:47:58;15.90;99.90
33023;DHT22;19390;51.460;5.710;2022-08-24T03:50:24;15.80;99.90
33023;DHT22;19390;51.460;5.710;2022-08-24T03:52:50;15.80;99.90
33023;DHT22;19390;51.460;5.710;2022-08-24T03:55:16;15.90;99.90
33023;DHT22;19390;51.460;5.710;2022-08-24T03:57:42;15.80;99.90
33023;DHT22;19390;51.460;5.710;2022-08-24T04:00:10;15.80;99.90
33023;DHT22;19390;51.460;5.710;2022-08-24T04:02:36;15.80;99.90
33023;DHT22;19390;51.460;5.710;2022-08-24T04:05:03;15.80;99.90
33023;DHT22;19390;51.460;5.710;2022-08-24T04:07:29;15.80;99.90
33023;DHT22;19390;51.460;5.710;2022-08-24T04:09:55;15.70;99.90
33023;DHT22;19390;51.460;5.710;2022-08-24T04:12:21;15.70;99.90
33023;DHT22;19390;51.460;5.710;2022-08-24T04:14:50;15.70;99.90
33023;DHT22;19390;51.460;5.710;2022-08-24T04:17:16;15.70;99.90
33023;DHT22;19390;51.460;5.710;2022-08-24T04:19:43;15.60;99.90
33023;DHT22;19390;51.460;5.710;2022-08-24T04:22:23;15.60;99.90
33023;DHT22;19390;51.460;5.710;2022-08-24T04:24:49;15.50;99.90
33023;DHT22;19390;51.460;5.710;2022-08-24T04:27:15;15.60;99.90
33023;DHT22;19390;51.460;5.710;2022-08-24T04:29:41;15.60;99.90
33023;DHT22;19390;51.460;5.710;2022-08-24T04:32:07;15.60;99.90
33023;DHT22;19390;51.460;5.710;2022-08-24T04:34:33;15.60;99.90
33023;DHT22;19390;51.460;5.710;2022-08-24T04:36:58;15.60;99.90
33023;DHT22;19390;51.460;5.710;2022-08-24T04:39:24;15.50;99.90
33023;DHT22;19390;51.460;5.710;2022-08-24T04:41:49;15.50;99.90
33023;DHT22;19390;51.460;5.710;2022-08-24T04:44:15;15.60;99.90
33023;DHT22;19390;51.460;5.710;2022-08-24T04:46:41;15.60;99.90
33023;DHT22;19390;51.460;5.710;2022-08-24T04:49:06;15.60;99.90
33023;DHT22;19390;51.460;5.710;2022-08-24T04:51:32;15.60;99.90
33023;DHT22;19390;51.460;5.710;2022-08-24T04:53:58;15.60;99.90
33023;DHT22;19390;51.460;5.710;2022-08-24T04:56:24;15.60;99.90
33023;DHT22;19390;51.460;5.710;2022-08-24T04:58:51;15.60;99.90
33023;DHT22;19390;51.460;5.710;2022-08-24T05:01:20;15.60;99.90
33023;DHT22;19390;51.460;5.710;2022-08-24T05:03:50;15.60;99.90
33023;DHT22;19390;51.460;5.710;2022-08-24T05:06:22;15.70;99.90
33023;DHT22;19390;51.460;5.710;2022-08-24T05:08:48;15.80;99.90
33023;DHT22;19390;51.460;5.710;2022-08-24T05:11:15;15.90;99.90
33023;DHT22;19390;51.460;5.710;2022-08-24T05:13:42;15.90;99.90
33023;DHT22;19390;51.460;5.710;2022-08-24T05:16:10;15.90;99.90
33023;DHT22;19390;51.460;5.710;2022-08-24T05:18:37;15.90;99.90
33023;DHT22;19390;51.460;5.710;2022-08-24T05:21:06;16.00;99.90
33023;DHT22;19390;51.460;5.710;2022-08-24T05:23:33;16.10;99.90
33023;DHT22;19390;51.460;5.710;2022-08-24T05:26:04;16.10;99.90
33023;DHT22;19390;51.460;5.710;2022-08-24T05:28:30;16.20;99.90
33023;DHT22;19390;51.460;5.710;2022-08-24T05:30:55;16.30;99.90
33023;DHT22;19390;51.460;5.710;2022-08-24T05:33:21;16.40;99.90
33023;DHT22;19390;51.460;5.710;2022-08-24T05:35:47;16.60;99.90
33023;DHT22;19390;51.460;5.710;2022-08-24T05:38:12;16.90;99.90
33023;DHT22;19390;51.460;5.710;2022-08-24T05:40:38;18.30;99.90
33023;DHT22;19390;51.460;5.710;2022-08-24T05:43:03;20.00;99.90
33023;DHT22;19390;51.460;5.710;2022-08-24T05:45:29;21.60;99.90
33023;DHT22;19390;51.460;5.710;2022-08-24T05:47:55;22.70;99.90
33023;DHT22;19390;51.460;5.710;2022-08-24T05:50:21;23.00;99.90
33023;DHT22;19390;51.460;5.710;2022-08-24T05:52:46;23.40;99.90
33023;DHT22;19390;51.460;5.710;2022-08-24T05:55:12;23.90;99.90
33023;DHT22;19390;51.460;5.710;2022-08-24T05:57:38;23.00;99.90
33023;DHT22;19390;51.460;5.710;2022-08-24T06:00:05;23.10;99.90
33023;DHT22;19390;51.460;5.710;2022-08-24T06:02:32;23.80;99.90
33023;DHT22;19390;51.460;5.710;2022-08-24T06:04:59;24.60;99.90
33023;DHT22;19390;51.460;5.710;2022-08-24T06:07:24;25.50;99.90
33023;DHT22;19390;51.460;5.710;2022-08-24T06:09:51;26.80;99.90
33023;DHT22;19390;51.460;5.710;2022-08-24T06:12:18;27.70;99.90
33023;DHT22;19390;51.460;5.710;2022-08-24T06:14:45;28.50;99.90
33023;DHT22;19390;51.460;5.710;2022-08-24T06:17:12;29.60;99.90
33023;DHT22;19390;51.460;5.710;2022-08-24T06:19:37;27.20;99.90
33023;DHT22;19390;51.460;5.710;2022-08-24T06:22:03;27.90;99.90
33023;DHT22;19390;51.460;5.710;2022-08-24T06:24:29;29.60;99.90
33023;DHT22;19390;51.460;5.710;2022-08-24T06:27:15;29.70;99.90
33023;DHT22;19390;51.460;5.710;2022-08-24T06:29:58;28.60;99.90
33023;DHT22;19390;51.460;5.710;2022-08-24T06:32:24;30.50;99.90
33023;DHT22;19390;51.460;5.710;2022-08-24T06:34:53;29.40;99.90
33023;DHT22;19390;51.460;5.710;2022-08-24T06:37:19;28.70;99.90
33023;DHT22;19390;51.460;5.710;2022-08-24T06:39:45;29.10;99.90
33023;DHT22;19390;51.460;5.710;2022-08-24T06:42:10;31.30;99.90
33023;DHT22;19390;51.460;5.710;2022-08-24T06:44:36;32.10;99.90
33023;DHT22;19390;51.460;5.710;2022-08-24T06:47:05;32.00;99.90
33023;DHT22;19390;51.460;5.710;2022-08-24T06:49:30;31.90;99.90
33023;DHT22;19390;51.460;5.710;2022-08-24T06:51:56;33.20;99.90
33023;DHT22;19390;51.460;5.710;2022-08-24T06:54:21;33.20;99.90
33023;DHT22;19390;51.460;5.710;2022-08-24T06:56:47;33.90;99.90
33023;DHT22;19390;51.460;5.710;2022-08-24T06:59:13;34.70;99.90
33023;DHT22;19390;51.460;5.710;2022-08-24T07:01:38;34.10;99.90
33023;DHT22;19390;51.460;5.710;2022-08-24T07:04:04;34.40;99.90
33023;DHT22;19390;51.460;5.710;2022-08-24T07:06:30;35.80;99.90
33023;DHT22;19390;51.460;5.710;2022-08-24T07:08:55;36.40;99.90
33023;DHT22;19390;51.460;5.710;2022-08-24T07:11:21;36.70;99.90
33023;DHT22;19390;51.460;5.710;2022-08-24T07:13:48;36.40;99.90
33023;DHT22;19390;51.460;5.710;2022-08-24T07:16:15;36.70;99.90
33023;DHT22;19390;51.460;5.710;2022-08-24T07:18:41;37.00;99.90
33023;DHT22;19390;51.460;5.710;2022-08-24T07:21:06;37.40;99.90
33023;DHT22;19390;51.460;5.710;2022-08-24T07:23:32;37.90;99.90
33023;DHT22;19390;51.460;5.710;2022-08-24T07:26:05;36.40;99.90
33023;DHT22;19390;51.460;5.710;2022-08-24T07:28:35;36.80;99.90
33023;DHT22;19390;51.460;5.710;2022-08-24T07:31:01;36.60;99.90
33023;DHT22;19390;51.460;5.710;2022-08-24T07:33:27;37.30;99.90
33023;DHT22;19390;51.460;5.710;2022-08-24T07:35:53;37.90;99.90
33023;DHT22;19390;51.460;5.710;2022-08-24T07:38:19;38.70;99.90
33023;DHT22;19390;51.460;5.710;2022-08-24T07:40:45;39.20;99.90
33023;DHT22;19390;51.460;5.710;2022-08-24T07:43:14;39.70;99.90
33023;DHT22;19390;51.460;5.710;2022-08-24T07:45:40;38.60;99.90
33023;DHT22;19390;51.460;5.710;2022-08-24T07:48:07;38.80;99.90
33023;DHT22;19390;51.460;5.710;2022-08-24T07:50:34;38.50;99.90
33023;DHT22;19390;51.460;5.710;2022-08-24T07:52:59;39.20;99.90
33023;DHT22;19390;51.460;5.710;2022-08-24T07:55:25;40.10;99.90
33023;DHT22;19390;51.460;5.710;2022-08-24T07:57:51;40.70;99.90
33023;DHT22;19390;51.460;5.710;2022-08-24T08:00:18;40.60;99.90
33023;DHT22;19390;51.460;5.710;2022-08-24T08:02:45;40.40;99.90
33023;DHT22;19390;51.460;5.710;2022-08-24T08:05:15;40.10;99.90
33023;DHT22;19390;51.460;5.710;2022-08-24T08:07:41;40.40;99.90
33023;DHT22;19390;51.460;5.710;2022-08-24T08:10:08;38.90;99.90
33023;DHT22;19390;51.460;5.710;2022-08-24T08:12:34;39.20;99.90
33023;DHT22;19390;51.460;5.710;2022-08-24T08:15:01;38.60;99.90
33023;DHT22;19390;51.460;5.710;2022-08-24T08:17:27;39.10;99.90
33023;DHT22;19390;51.460;5.710;2022-08-24T08:19:53;40.40;99.90
33023;DHT22;19390;51.460;5.710;2022-08-24T08:22:19;39.70;99.90
33023;DHT22;19390;51.460;5.710;2022-08-24T08:25:04;40.60;99.90
33023;DHT22;19390;51.460;5.710;2022-08-24T08:27:31;39.60;99.90
33023;DHT22;19390;51.460;5.710;2022-08-24T08:29:57;40.10;99.90
33023;DHT22;19390;51.460;5.710;2022-08-24T08:32:23;40.80;99.90
33023;DHT22;19390;51.460;5.710;2022-08-24T08:34:48;38.70;99.90
33023;DHT22;19390;51.460;5.710;2022-08-24T14:14:34;37.70;92.80
33023;DHT22;19390;51.460;5.710;2022-08-24T14:25:48;37.50;93.00
33023;DHT22;19390;51.460;5.710;2022-08-24T14:31:16;35.80;93.90
33023;DHT22;19390;51.460;5.710;2022-08-24T14:34:09;36.70;94.10
33023;DHT22;19390;51.460;5.710;2022-08-24T14:42:20;35.10;94.20
33023;DHT22;19390;51.460;5.710;2022-08-24T14:50:56;35.20;94.90
33023;DHT22;19390;51.460;5.710;2022-08-24T14:59:02;35.70;94.60
33023;DHT22;19390;51.460;5.710;2022-08-24T15:04:38;34.30;95.20
33023;DHT22;19390;51.460;5.710;2022-08-24T15:09:48;35.20;95.00
33023;DHT22;19390;51.460;5.710;2022-08-24T15:15:23;35.60;95.30
33023;DHT22;19390;51.460;5.710;2022-08-24T15:18:10;33.80;96.10
33023;DHT22;19390;51.460;5.710;2022-08-24T15:24:06;33.70;95.40
33023;DHT22;19390;51.460;5.710;2022-08-24T15:29:22;35.20;94.90
33023;DHT22;19390;51.460;5.710;2022-08-24T15:34:41;34.50;95.20
33023;DHT22;19390;51.460;5.710;2022-08-24T15:37:08;34.10;95.40
33023;DHT22;19390;51.460;5.710;2022-08-24T15:39:34;33.60;95.60
33023;DHT22;19390;51.460;5.710;2022-08-24T15:42:07;33.40;96.40
33023;DHT22;19390;51.460;5.710;2022-08-24T15:44:34;33.00;96.00
33023;DHT22;19390;51.460;5.710;2022-08-24T15:47:04;32.90;96.90
33023;DHT22;19390;51.460;5.710;2022-08-24T15:49:55;33.20;97.40
33023;DHT22;19390;51.460;5.710;2022-08-24T15:52:43;33.10;96.50
33023;DHT22;19390;51.460;5.710;2022-08-24T15:55:44;33.00;97.90
33023;DHT22;19390;51.460;5.710;2022-08-24T15:58:28;33.80;97.00
33023;DHT22;19390;51.460;5.710;2022-08-24T16:03:55;33.70;96.50
33023;DHT22;19390;51.460;5.710;2022-08-24T16:14:23;32.90;96.40
33023;DHT22;19390;51.460;5.710;2022-08-24T16:16:50;33.00;96.70
33023;DHT22;19390;51.460;5.710;2022-08-24T16:19:26;33.10;96.80
33023;DHT22;19390;51.460;5.710;2022-08-24T16:22:01;32.40;96.90
33023;DHT22;19390;51.460;5.710;2022-08-24T16:24:33;33.00;96.90
33023;DHT22;19390;51.460;5.710;2022-08-24T16:27:13;33.50;97.10
33023;DHT22;19390;51.460;5.710;2022-08-24T16:32:23;32.80;96.70
33023;DHT22;19390;51.460;5.710;2022-08-24T16:34:52;32.40;96.30
33023;DHT22;19390;51.460;5.710;2022-08-24T16:37:19;32.40;97.10
33023;DHT22;19390;51.460;5.710;2022-08-24T16:39:46;32.10;97.10
33023;DHT22;19390;51.460;5.710;2022-08-24T16:42:27;32.10;97.40
33023;DHT22;19390;51.460;5.710;2022-08-24T16:44:54;32.00;97.60
33023;DHT22;19390;51.460;5.710;2022-08-24T16:47:21;32.50;97.50
33023;DHT22;19390;51.460;5.710;2022-08-24T16:49:47;32.90;97.10
33023;DHT22;19390;51.460;5.710;2022-08-24T16:52:13;32.80;97.60
33023;DHT22;19390;51.460;5.710;2022-08-24T16:54:39;32.40;96.90
33023;DHT22;19390;51.460;5.710;2022-08-24T16:57:12;32.10;97.60
33023;DHT22;19390;51.460;5.710;2022-08-24T16:59:41;31.60;97.50
33023;DHT22;19390;51.460;5.710;2022-08-24T17:02:08;31.20;98.00
33023;DHT22;19390;51.460;5.710;2022-08-24T17:04:34;31.10;98.20
33023;DHT22;19390;51.460;5.710;2022-08-24T17:07:01;31.20;98.80
33023;DHT22;19390;51.460;5.710;2022-08-24T17:09:27;31.20;98.90
33023;DHT22;19390;51.460;5.710;2022-08-24T17:11:53;31.10;98.70
33023;DHT22;19390;51.460;5.710;2022-08-24T17:14:19;31.10;98.80
33023;DHT22;19390;51.460;5.710;2022-08-24T17:16:45;31.10;98.60
33023;DHT22;19390;51.460;5.710;2022-08-24T17:19:14;31.10;98.70
33023;DHT22;19390;51.460;5.710;2022-08-24T17:21:41;31.00;99.00
33023;DHT22;19390;51.460;5.710;2022-08-24T17:24:07;31.00;99.10
33023;DHT22;19390;51.460;5.710;2022-08-24T17:26:34;30.90;99.40
33023;DHT22;19390;51.460;5.710;2022-08-24T17:29:02;30.80;99.10
33023;DHT22;19390;51.460;5.710;2022-08-24T17:31:29;30.90;99.00
33023;DHT22;19390;51.460;5.710;2022-08-24T17:33:56;30.90;99.20
33023;DHT22;19390;51.460;5.710;2022-08-24T17:36:22;30.70;99.90
33023;DHT22;19390;51.460;5.710;2022-08-24T17:38:51;30.60;99.30
33023;DHT22;19390;51.460;5.710;2022-08-24T17:41:18;30.70;98.70
33023;DHT22;19390;51.460;5.710;2022-08-24T17:43:44;30.60;99.90
33023;DHT22;19390;51.460;5.710;2022-08-24T17:46:11;30.50;99.60
33023;DHT22;19390;51.460;5.710;2022-08-24T17:48:39;30.20;99.90
33023;DHT22;19390;51.460;5.710;2022-08-24T17:51:05;30.30;99.90
33023;DHT22;19390;51.460;5.710;2022-08-24T17:53:30;30.30;99.90
33023;DHT22;19390;51.460;5.710;2022-08-24T17:55:56;30.10;99.90
33023;DHT22;19390;51.460;5.710;2022-08-24T17:58:21;30.00;99.90
33023;DHT22;19390;51.460;5.710;2022-08-24T18:00:47;29.80;99.90
33023;DHT22;19390;51.460;5.710;2022-08-24T18:03:13;29.60;99.90
33023;DHT22;19390;51.460;5.710;2022-08-24T18:05:38;29.40;99.90
33023;DHT22;19390;51.460;5.710;2022-08-24T18:08:05;29.30;99.90
33023;DHT22;19390;51.460;5.710;2022-08-24T18:10:31;29.30;99.90
33023;DHT22;19390;51.460;5.710;2022-08-24T18:12:58;29.10;99.90
33023;DHT22;19390;51.460;5.710;2022-08-24T18:15:26;28.90;99.90
33023;DHT22;19390;51.460;5.710;2022-08-24T18:17:55;28.70;99.90
33023;DHT22;19390;51.460;5.710;2022-08-24T18:20:26;28.50;99.90
33023;DHT22;19390;51.460;5.710;2022-08-24T18:22:52;28.40;99.90
33023;DHT22;19390;51.460;5.710;2022-08-24T18:25:19;28.30;99.90
33023;DHT22;19390;51.460;5.710;2022-08-24T18:27:47;28.20;99.90
33023;DHT22;19390;51.460;5.710;2022-08-24T18:30:41;28.00;99.90
33023;DHT22;19390;51.460;5.710;2022-08-24T18:33:07;27.50;99.90
33023;DHT22;19390;51.460;5.710;2022-08-24T18:35:33;27.70;99.90
33023;DHT22;19390;51.460;5.710;2022-08-24T18:37:59;27.50;99.90
33023;DHT22;19390;51.460;5.710;2022-08-24T18:40:24;27.40;99.90
33023;DHT22;19390;51.460;5.710;2022-08-24T18:42:53;26.90;99.90
33023;DHT22;19390;51.460;5.710;2022-08-24T18:45:19;26.50;99.90
33023;DHT22;19390;51.460;5.710;2022-08-24T18:47:45;26.60;99.90
33023;DHT22;19390;51.460;5.710;2022-08-24T18:50:10;26.60;99.90
33023;DHT22;19390;51.460;5.710;2022-08-24T18:52:37;26.40;99.90
33023;DHT22;19390;51.460;5.710;2022-08-24T18:55:06;26.30;99.90
33023;DHT22;19390;51.460;5.710;2022-08-24T18:57:32;26.20;99.90
33023;DHT22;19390;51.460;5.710;2022-08-24T18:59:58;26.00;99.90
33023;DHT22;19390;51.460;5.710;2022-08-24T19:02:24;26.00;99.90
33023;DHT22;19390;51.460;5.710;2022-08-24T19:05:06;25.70;99.90
33023;DHT22;19390;51.460;5.710;2022-08-24T19:07:38;25.90;99.90
33023;DHT22;19390;51.460;5.710;2022-08-24T19:10:06;26.00;99.90
33023;DHT22;19390;51.460;5.710;2022-08-24T19:12:37;26.00;99.90
33023;DHT22;19390;51.460;5.710;2022-08-24T19:15:03;25.90;99.90
33023;DHT22;19390;51.460;5.710;2022-08-24T19:17:29;25.80;99.90
33023;DHT22;19390;51.460;5.710;2022-08-24T19:19:55;25.80;99.90
33023;DHT22;19390;51.460;5.710;2022-08-24T19:22:21;25.80;99.90
33023;DHT22;19390;51.460;5.710;2022-08-24T19:24:47;25.50;99.90
33023;DHT22;19390;51.460;5.710;2022-08-24T19:27:13;25.50;99.90
33023;DHT22;19390;51.460;5.710;2022-08-24T19:29:39;25.30;99.90
33023;DHT22;19390;51.460;5.710;2022-08-24T19:32:06;25.10;99.90
33023;DHT22;19390;51.460;5.710;2022-08-24T19:34:33;25.10;99.90
33023;DHT22;19390;51.460;5.710;2022-08-24T19:36:58;25.00;99.90
33023;DHT22;19390;51.460;5.710;2022-08-24T19:39:24;24.90;99.90
33023;DHT22;19390;51.460;5.710;2022-08-24T19:41:50;24.90;99.90
33023;DHT22;19390;51.460;5.710;2022-08-24T19:44:18;24.90;99.90
33023;DHT22;19390;51.460;5.710;2022-08-24T19:47:04;24.90;99.90
33023;DHT22;19390;51.460;5.710;2022-08-24T19:49:30;25.00;99.90
33023;DHT22;19390;51.460;5.710;2022-08-24T19:51:58;25.00;99.90
33023;DHT22;19390;51.460;5.710;2022-08-24T19:54:31;25.00;99.90
33023;DHT22;19390;51.460;5.710;2022-08-24T19:56:57;25.10;99.90
33023;DHT22;19390;51.460;5.710;2022-08-24T19:59:26;25.10;99.90
33023;DHT22;19390;51.460;5.710;2022-08-24T20:01:52;25.00;99.90
33023;DHT22;19390;51.460;5.710;2022-08-24T20:04:17;24.90;99.90
33023;DHT22;19390;51.460;5.710;2022-08-24T20:06:43;25.00;99.90
33023;DHT22;19390;51.460;5.710;2022-08-24T20:09:09;25.10;99.90
33023;DHT22;19390;51.460;5.710;2022-08-24T20:11:35;25.00;99.90
33023;DHT22;19390;51.460;5.710;2022-08-24T20:14:01;25.00;99.90
33023;DHT22;19390;51.460;5.710;2022-08-24T20:16:31;24.90;99.90
33023;DHT22;19390;51.460;5.710;2022-08-24T20:18:58;24.90;99.90
33023;DHT22;19390;51.460;5.710;2022-08-24T20:21:25;24.80;99.90
33023;DHT22;19390;51.460;5.710;2022-08-24T20:23:51;24.70;99.90
33023;DHT22;19390;51.460;5.710;2022-08-24T20:26:18;24.70;99.90
33023;DHT22;19390;51.460;5.710;2022-08-24T20:28:49;24.60;99.90
33023;DHT22;19390;51.460;5.710;2022-08-24T20:31:16;24.70;99.90
33023;DHT22;19390;51.460;5.710;2022-08-24T20:33:42;24.80;99.90
33023;DHT22;19390;51.460;5.710;2022-08-24T20:36:20;24.60;99.90
33023;DHT22;19390;51.460;5.710;2022-08-24T20:38:48;24.80;99.90
33023;DHT22;19390;51.460;5.710;2022-08-24T20:41:13;24.80;99.90
33023;DHT22;19390;51.460;5.710;2022-08-24T20:43:39;24.70;99.90
33023;DHT22;19390;51.460;5.710;2022-08-24T20:46:05;24.60;99.90
33023;DHT22;19390;51.460;5.710;2022-08-24T20:48:31;24.50;99.90
33023;DHT22;19390;51.460;5.710;2022-08-24T20:50:58;24.40;99.90
33023;DHT22;19390;51.460;5.710;2022-08-24T20:53:25;24.40;99.90
33023;DHT22;19390;51.460;5.710;2022-08-24T20:55:52;24.30;99.90
33023;DHT22;19390;51.460;5.710;2022-08-24T20:58:20;24.10;99.90
33023;DHT22;19390;51.460;5.710;2022-08-24T21:00:46;24.00;99.90
33023;DHT22;19390;51.460;5.710;2022-08-24T21:03:12;23.90;99.90
33023;DHT22;19390;51.460;5.710;2022-08-24T21:05:43;23.90;99.90
33023;DHT22;19390;51.460;5.710;2022-08-24T21:08:12;23.80;99.90
33023;DHT22;19390;51.460;5.710;2022-08-24T21:10:38;23.70;99.90
33023;DHT22;19390;51.460;5.710;2022-08-24T21:13:04;23.70;99.90
33023;DHT22;19390;51.460;5.710;2022-08-24T21:15:31;23.70;99.90
33023;DHT22;19390;51.460;5.710;2022-08-24T21:17:57;23.60;99.90
33023;DHT22;19390;51.460;5.710;2022-08-24T21:20:23;23.50;99.90
33023;DHT22;19390;51.460;5.710;2022-08-24T21:22:49;23.50;99.90
33023;DHT22;19390;51.460;5.710;2022-08-24T21:25:16;23.50;99.90
33023;DHT22;19390;51.460;5.710;2022-08-24T21:27:43;23.50;99.90
33023;DHT22;19390;51.460;5.710;2022-08-24T21:30:13;23.40;99.90
33023;DHT22;19390;51.460;5.710;2022-08-24T21:32:40;23.30;99.90
33023;DHT22;19390;51.460;5.710;2022-08-24T21:35:24;23.30;99.90
33023;DHT22;19390;51.460;5.710;2022-08-24T21:37:50;23.20;99.90
33023;DHT22;19390;51.460;5.710;2022-08-24T21:40:15;23.10;99.90
33023;DHT22;19390;51.460;5.710;2022-08-24T21:42:41;23.10;99.90
33023;DHT22;19390;51.460;5.710;2022-08-24T21:45:07;23.10;99.90
33023;DHT22;19390;51.460;5.710;2022-08-24T21:47:33;23.00;99.90
33023;DHT22;19390;51.460;5.710;2022-08-24T21:49:59;23.00;99.90
33023;DHT22;19390;51.460;5.710;2022-08-24T21:52:24;22.90;99.90
33023;DHT22;19390;51.460;5.710;2022-08-24T21:54:50;23.00;99.90
33023;DHT22;19390;51.460;5.710;2022-08-24T21:57:16;23.00;99.90
33023;DHT22;19390;51.460;5.710;2022-08-24T21:59:42;23.00;99.90
33023;DHT22;19390;51.460;5.710;2022-08-24T22:02:08;23.00;99.90
33023;DHT22;19390;51.460;5.710;2022-08-24T22:04:34;23.00;99.90
33023;DHT22;19390;51.460;5.710;2022-08-24T22:06:59;23.00;99.90
33023;DHT22;19390;51.460;5.710;2022-08-24T22:09:26;23.00;99.90
33023;DHT22;19390;51.460;5.710;2022-08-24T22:11:52;23.10;99.90